Time;durP1;ratioP1;P1;durP2;ratioP2;P2;SDS_P1;SDS_P2;PMS_P1;PMS_P2;Temp;Humidity;BMP_temperature;BMP_pressure;BME280_temperature;BME280_humidity;BME280_pressure;Samples;Min_cycle;Max_cycle;Signal;HPM_P1;HPM_P2
2022/07/25 00:01:20;;;;;;;6.25;5.37;;;;;;;14.29;63.62;97513.59;1842064;77;26003;-75
2022/07/25 00:03:47;;;;;;;5.97;5.37;;;;;;;14.26;63.68;97507.27;1842053;77;25717;-74
2022/07/25 00:06:13;;;;;;;5.12;4.62;;;;;;;14.23;63.71;97504.51;1841944;77;28138;-75
2022/07/25 00:08:40;;;;;;;7.70;4.87;;;;;;;14.18;63.81;97508.96;1842006;77;25736;-75
2022/07/25 00:11:07;;;;;;;8.70;4.80;;;;;;;14.14;63.85;97503.69;1841968;77;25665;-75
2022/07/25 00:13:33;;;;;;;5.42;4.87;;;;;;;14.10;63.94;97499.80;1841884;77;26038;-75
2022/07/25 00:16:00;;;;;;;6.47;5.10;;;;;;;14.05;63.89;97505.38;1842061;77;25645;-74
2022/07/25 00:18:26;;;;;;;8.18;4.85;;;;;;;14.02;63.98;97503.13;1842028;77;27390;-74
2022/07/25 00:20:53;;;;;;;5.35;4.55;;;;;;;13.99;64.07;97502.25;1842013;77;25689;-75
2022/07/25 00:23:19;;;;;;;4.95;4.45;;;;;;;13.96;64.07;97501.87;1841962;77;25645;-74
2022/07/25 00:25:46;;;;;;;6.28;4.90;;;;;;;13.92;64.17;97504.21;1842121;77;26029;-75
2022/07/25 00:28:12;;;;;;;7.37;4.72;;;;;;;13.91;64.28;97512.58;1841928;77;25652;-74
2022/07/25 00:30:39;;;;;;;7.10;5.22;;;;;;;13.88;64.33;97507.11;1842081;77;28122;-75
2022/07/25 00:33:05;;;;;;;6.30;4.62;;;;;;;13.85;64.28;97510.27;1841809;77;25658;-74
2022/07/25 00:35:32;;;;;;;6.12;4.75;;;;;;;13.82;64.24;97509.37;1842035;77;25241;-74
2022/07/25 00:37:58;;;;;;;5.33;4.42;;;;;;;13.78;64.33;97508.16;1841924;77;26722;-74
2022/07/25 00:40:25;;;;;;;6.55;4.80;;;;;;;13.75;64.36;97511.34;1842200;77;25857;-75
2022/07/25 00:42:52;;;;;;;8.05;4.92;;;;;;;13.73;64.45;97513.45;1811853;77;27440;-74
2022/07/25 00:45:18;;;;;;;5.75;4.58;;;;;;;13.71;64.49;97510.14;1842026;77;25640;-74
2022/07/25 00:47:45;;;;;;;5.90;4.10;;;;;;;13.68;64.51;97514.13;1841902;77;25727;-74
2022/07/25 00:50:11;;;;;;;7.08;5.12;;;;;;;13.65;64.58;97506.97;1842072;77;26832;-74
2022/07/25 00:52:38;;;;;;;4.92;4.45;;;;;;;13.61;64.66;97509.33;1842005;77;25715;-74
2022/07/25 00:55:06;;;;;;;6.28;4.78;;;;;;;13.58;64.68;97504.88;1842129;77;27401;-75
2022/07/25 00:57:33;;;;;;;7.42;4.67;;;;;;;13.57;64.73;97505.94;1842268;77;25696;-74
2022/07/25 00:59:59;;;;;;;5.08;4.58;;;;;;;13.54;64.80;97500.96;1841632;77;25246;-75
2022/07/25 01:02:26;;;;;;;5.70;4.40;;;;;;;13.52;64.81;97500.38;1841989;77;26023;-74
2022/07/25 01:04:53;;;;;;;6.30;4.78;;;;;;;13.47;64.81;97498.34;1841922;77;25728;-75
2022/07/25 01:07:20;;;;;;;4.45;3.95;;;;;;;13.45;64.93;97495.55;1841866;77;27364;-75
2022/07/25 01:09:47;;;;;;;7.42;4.75;;;;;;;13.43;65.00;97491.70;1841846;77;25641;-75
2022/07/25 01:12:13;;;;;;;9.35;4.95;;;;;;;13.40;64.98;97493.55;1841942;77;25605;-75
2022/07/25 01:14:40;;;;;;;5.05;4.33;;;;;;;13.36;65.00;97492.33;1842025;77;26569;-75
2022/07/25 01:17:07;;;;;;;5.00;4.50;;;;;;;13.32;65.02;97490.59;1841858;77;25769;-75
2022/07/25 01:19:33;;;;;;;7.03;4.72;;;;;;;13.29;65.07;97485.61;1841966;77;28021;-75
2022/07/25 01:22:00;;;;;;;8.33;4.60;;;;;;;13.29;65.09;97484.26;1841786;77;25215;-75
2022/07/25 01:24:28;;;;;;;5.62;4.42;;;;;;;13.27;65.14;97486.92;1842027;77;25670;-74
2022/07/25 01:26:55;;;;;;;5.95;4.30;;;;;;;13.24;65.30;97481.94;1841541;77;26608;-75
2022/07/25 01:29:21;;;;;;;6.53;4.50;;;;;;;13.17;65.38;97487.42;1841963;77;26032;-75
2022/07/25 01:31:48;;;;;;;6.83;4.58;;;;;;;13.10;65.52;97480.39;1841858;77;27957;-75
2022/07/25 01:34:14;;;;;;;4.60;4.20;;;;;;;13.09;65.62;97483.63;1843787;77;25967;-75
2022/07/25 01:36:41;;;;;;;4.72;4.33;;;;;;;13.09;65.60;97483.63;1845182;77;25724;-74
2022/07/25 01:39:07;;;;;;;7.20;4.53;;;;;;;13.08;65.75;97483.86;1845303;77;26537;-74
2022/07/25 01:41:34;;;;;;;4.72;4.33;;;;;;;13.06;65.75;97481.36;1845333;77;25732;-74
2022/07/25 01:44:01;;;;;;;5.00;4.50;;;;;;;13.06;65.75;97481.36;1845234;77;27391;-75
2022/07/25 01:46:27;;;;;;;5.58;4.22;;;;;;;13.05;65.75;97478.87;1845102;77;25187;-75
2022/07/25 01:48:54;;;;;;;6.50;4.50;;;;;;;13.02;65.74;97477.47;1845190;77;25650;-75
2022/07/25 01:51:20;;;;;;;5.00;4.55;;;;;;;13.01;65.77;97473.10;1845139;77;26200;-74
2022/07/25 01:53:48;;;;;;;7.95;4.47;;;;;;;12.99;65.74;97480.63;1845170;77;25594;-75
2022/07/25 01:56:14;;;;;;;5.40;4.12;;;;;;;12.95;65.82;97476.70;1845189;77;27995;-75
2022/07/25 01:58:41;;;;;;;5.20;4.70;;;;;;;12.94;65.86;97472.33;1844940;77;26247;-75
2022/07/25 02:01:07;;;;;;;6.20;4.80;;;;;;;12.91;65.90;97472.27;1844767;77;25708;-74
2022/07/25 02:03:34;;;;;;;5.10;4.70;;;;;;;12.88;65.92;97470.00;1845111;77;26019;-74
2022/07/25 02:06:05;;;;;;;4.75;4.30;;;;;;;12.87;65.91;97468.34;1845307;77;25431;-75
2022/07/25 02:08:32;;;;;;;5.60;4.20;;;;;;;12.83;65.97;97472.54;1845221;77;27441;-74
2022/07/25 02:10:59;;;;;;;7.53;4.45;;;;;;;12.80;66.04;97470.83;1844929;77;25685;-75
2022/07/25 02:13:26;;;;;;;4.95;4.30;;;;;;;12.75;66.01;97466.07;1845037;77;26708;-74
2022/07/25 02:15:53;;;;;;;6.08;4.30;;;;;;;12.72;66.08;97470.58;1845257;77;25985;-75
2022/07/25 02:18:20;;;;;;;5.47;4.30;;;;;;;12.70;66.12;97466.42;1845274;77;25685;-74
2022/07/25 02:20:47;;;;;;;5.22;3.95;;;;;;;12.66;66.14;97467.94;1845384;77;28072;-74
2022/07/25 02:23:13;;;;;;;5.60;4.75;;;;;;;12.63;66.20;97471.91;1845218;77;25658;-74
2022/07/25 02:25:40;;;;;;;5.12;4.15;;;;;;;12.60;66.24;97472.36;1845387;77;25641;-74
2022/07/25 02:28:06;;;;;;;6.45;4.60;;;;;;;12.59;66.26;97470.17;1844986;77;26622;-75
2022/07/25 02:30:33;;;;;;;7.00;4.42;;;;;;;12.57;66.26;97460.08;1845058;77;25729;-75
2022/07/25 02:32:59;;;;;;;5.75;4.50;;;;;;;12.56;66.27;97460.30;1845031;77;28348;-75
2022/07/25 02:35:26;;;;;;;7.12;4.67;;;;;;;12.55;66.30;97461.38;1845409;77;25392;-75
2022/07/25 02:37:52;;;;;;;6.40;4.45;;;;;;;12.52;66.38;97459.94;1845588;77;25605;-74
2022/07/25 02:40:19;;;;;;;4.60;4.20;;;;;;;12.50;66.45;97459.33;1845456;77;25977;-74
2022/07/25 02:42:45;;;;;;;5.22;4.60;;;;;;;12.48;66.43;97461.95;1845317;77;25395;-75
2022/07/25 02:45:12;;;;;;;6.17;4.37;;;;;;;12.45;66.48;97459.67;1845559;77;27349;-75
2022/07/25 02:47:39;;;;;;;5.20;4.65;;;;;;;12.42;66.56;97457.44;1845677;77;25718;-74
2022/07/25 02:50:06;;;;;;;4.22;3.83;;;;;;;12.41;66.55;97456.61;1845336;77;25915;-74
2022/07/25 02:52:33;;;;;;;9.80;4.72;;;;;;;12.39;66.55;97455.99;1845414;77;25950;-74
2022/07/25 02:54:59;;;;;;;6.72;3.98;;;;;;;12.36;66.60;97456.95;1845449;77;25768;-74
2022/07/25 02:57:26;;;;;;;5.50;4.20;;;;;;;12.34;66.63;97458.52;1845451;77;27355;-74
2022/07/25 02:59:53;;;;;;;4.90;4.40;;;;;;;12.33;66.68;97457.39;1845040;77;25770;-75
2022/07/25 03:02:19;;;;;;;4.35;3.95;;;;;;;12.30;66.68;97460.03;1845385;77;25672;-74
2022/07/25 03:04:46;;;;;;;5.30;4.80;;;;;;;12.28;66.72;97458.06;1845471;77;25975;-74
2022/07/25 03:07:12;;;;;;;6.22;4.25;;;;;;;12.26;66.74;97452.04;1845486;77;25712;-74
2022/07/25 03:09:39;;;;;;;4.97;4.08;;;;;;;12.23;66.78;97445.70;1845384;77;27331;-74
2022/07/25 03:12:06;;;;;;;5.12;4.33;;;;;;;12.22;66.81;97453.52;1845442;77;25704;-74
2022/07/25 03:14:33;;;;;;;5.10;4.45;;;;;;;12.20;66.87;97452.91;1845353;77;25735;-74
2022/07/25 03:17:00;;;;;;;6.87;4.33;;;;;;;12.18;66.86;97458.56;1845613;77;26082;-74
2022/07/25 03:19:27;;;;;;;6.37;4.30;;;;;;;12.17;66.90;97456.08;1845794;77;25740;-74
2022/07/25 03:21:53;;;;;;;5.45;3.87;;;;;;;12.13;67.01;97455.68;1845803;77;27321;-74
2022/07/25 03:24:20;;;;;;;8.60;4.60;;;;;;;12.12;67.09;97457.25;1845447;77;25697;-74
2022/07/25 03:26:46;;;;;;;6.20;4.10;;;;;;;12.10;67.17;97460.69;1845564;77;25776;-74
2022/07/25 03:29:13;;;;;;;5.12;4.22;;;;;;;12.08;67.18;97460.08;1845585;77;26799;-74
2022/07/25 03:31:39;;;;;;;6.75;4.85;;;;;;;12.07;67.26;97463.86;1845582;77;25693;-74
2022/07/25 03:34:06;;;;;;;5.12;4.20;;;;;;;12.05;67.34;97468.66;1843943;76;27342;-75
2022/07/25 03:36:33;;;;;;;5.35;4.37;;;;;;;12.04;67.44;97476.47;1841877;77;25642;-75
2022/07/25 03:38:59;;;;;;;7.35;4.25;;;;;;;12.05;67.51;97471.36;1842085;77;26620;-74
2022/07/25 03:41:26;;;;;;;8.18;4.20;;;;;;;12.03;67.46;97470.75;1842097;77;26652;-74
2022/07/25 03:43:53;;;;;;;4.40;4.00;;;;;;;12.03;67.50;97477.51;1841884;77;43901;-75
2022/07/25 03:46:20;;;;;;;7.30;4.35;;;;;;;12.03;67.54;97474.80;1842110;77;27384;-75
2022/07/25 03:48:46;;;;;;;6.72;4.58;;;;;;;12.02;67.56;97474.50;1841967;77;25743;-74
2022/07/25 03:51:13;;;;;;;5.72;4.20;;;;;;;12.00;67.63;97473.36;1842091;77;25690;-74
2022/07/25 03:56:25;;;;;;;7.17;4.47;;;;;;;11.99;67.77;97476.28;1841848;77;25689;-74
2022/07/25 03:58:51;;;;;;;6.85;4.50;;;;;;;11.97;67.95;97475.14;1842024;77;28028;-73
2022/07/25 04:01:18;;;;;;;6.55;4.35;;;;;;;11.97;68.07;97470.25;1841608;77;25401;-75
2022/07/25 04:03:44;;;;;;;8.33;4.67;;;;;;;11.98;68.14;97471.91;1841935;77;25709;-74
2022/07/25 04:06:11;;;;;;;6.65;4.50;;;;;;;11.99;68.22;97473.58;1841972;77;26130;-74
2022/07/25 04:08:38;;;;;;;7.33;4.28;;;;;;;12.01;68.29;97472.84;1842161;77;25561;-75
2022/07/25 04:11:05;;;;;;;5.30;4.80;;;;;;;12.03;68.32;97476.16;1842088;77;27416;-74
2022/07/25 04:13:31;;;;;;;7.67;5.00;;;;;;;12.04;68.43;97471.88;1841884;77;25646;-74
2022/07/25 04:15:58;;;;;;;5.12;4.60;;;;;;;12.07;68.52;97471.98;1841847;77;25776;-75
2022/07/25 04:18:24;;;;;;;6.62;4.70;;;;;;;12.09;68.59;97469.86;1842003;77;25998;-75
2022/07/25 04:20:51;;;;;;;8.70;4.80;;;;;;;12.11;68.69;97463.70;1842126;77;25714;-74
2022/07/25 04:23:17;;;;;;;7.60;5.22;;;;;;;12.14;68.78;97468.69;1842042;77;27400;-75
2022/07/25 04:25:44;;;;;;;5.42;4.75;;;;;;;12.17;68.88;97467.73;1842016;77;26308;-75
2022/07/25 04:28:11;;;;;;;6.10;5.50;;;;;;;12.21;68.91;97469.45;1842079;77;25538;-74
2022/07/25 04:30:37;;;;;;;9.60;5.80;;;;;;;12.23;68.94;97465.48;1841994;77;26851;-75
2022/07/25 04:33:04;;;;;;;5.65;5.10;;;;;;;12.25;69.13;97466.62;1842003;77;26155;-75
2022/07/25 04:35:31;;;;;;;5.65;5.08;;;;;;;12.26;69.23;97462.86;1844120;77;27486;-75
2022/07/25 04:37:57;;;;;;;7.90;6.15;;;;;;;12.31;69.31;97460.86;1845215;77;25641;-75
2022/07/25 04:40:24;;;;;;;7.40;5.55;;;;;;;12.35;69.34;97463.41;1845186;77;26272;-75
2022/07/25 04:42:50;;;;;;;6.12;5.40;;;;;;;12.39;69.36;97460.05;1845167;77;26801;-74
2022/07/25 04:45:17;;;;;;;8.28;6.00;;;;;;;12.43;69.48;97453.16;1845353;77;25919;-74
2022/07/25 04:47:43;;;;;;;12.75;6.42;;;;;;;12.49;69.55;97456.31;1845204;77;28369;-75
2022/07/25 04:50:10;;;;;;;12.75;5.90;;;;;;;12.54;69.59;97442.95;1845197;77;25677;-74
2022/07/25 04:52:37;;;;;;;13.58;6.30;;;;;;;12.60;69.75;97446.63;1845215;77;25653;-75
2022/07/25 04:55:04;;;;;;;6.25;5.65;;;;;;;12.65;69.79;97441.91;1845327;77;26011;-74
2022/07/25 04:57:31;;;;;;;10.98;5.28;;;;;;;12.72;69.87;97438.59;1845273;77;25756;-74
2022/07/25 04:59:57;;;;;;;5.90;5.35;;;;;;;12.81;69.84;97435.89;1845179;77;27329;-74
2022/07/25 05:02:25;;;;;;;6.47;5.03;;;;;;;12.88;69.68;97425.30;1845091;77;26119;-75
2022/07/25 05:04:52;;;;;;;6.67;5.80;;;;;;;12.94;69.73;97424.38;1844971;77;25759;-75
2022/07/25 05:07:19;;;;;;;8.38;5.45;;;;;;;13.01;69.77;97422.97;1845122;77;25725;-74
2022/07/25 05:09:45;;;;;;;10.40;5.87;;;;;;;13.08;69.84;97417.46;1845487;77;25685;-74
2022/07/25 05:12:12;;;;;;;9.60;5.42;;;;;;;13.13;69.95;97418.45;1844841;77;27454;-75
2022/07/25 05:14:38;;;;;;;10.23;5.55;;;;;;;13.20;70.09;97419.22;1845132;77;25642;-75
2022/07/25 05:17:05;;;;;;;6.28;5.42;;;;;;;13.25;70.02;97411.23;1845362;77;25634;-75
2022/07/25 05:19:32;;;;;;;7.33;5.17;;;;;;;13.33;70.12;97409.56;1845168;77;26486;-74
2022/07/25 05:21:58;;;;;;;8.13;5.10;;;;;;;13.40;70.29;97412.20;1845382;77;25747;-74
2022/07/25 05:24:25;;;;;;;8.28;4.85;;;;;;;13.47;70.42;97405.31;1845150;77;28133;-74
2022/07/25 05:26:51;;;;;;;7.45;4.60;;;;;;;13.55;70.44;97399.56;1845195;77;25731;-75
2022/07/25 05:29:18;;;;;;;6.03;4.80;;;;;;;13.64;70.28;97404.98;1845190;77;25788;-75
2022/07/25 05:31:44;;;;;;;5.35;4.28;;;;;;;13.72;70.20;97403.29;1845138;77;26110;-75
2022/07/25 05:34:11;;;;;;;8.13;4.60;;;;;;;13.81;70.15;97397.83;1845077;77;25832;-74
2022/07/25 05:36:37;;;;;;;6.25;4.37;;;;;;;13.90;69.97;97395.59;1845338;77;26808;-74
2022/07/25 05:39:04;;;;;;;5.60;4.25;;;;;;;13.99;69.90;97389.63;1845149;77;25677;-74
2022/07/25 05:41:31;;;;;;;4.80;3.75;;;;;;;14.10;69.80;97380.38;1845200;77;25761;-75
2022/07/25 05:43:57;;;;;;;5.05;4.55;;;;;;;14.19;69.61;97378.42;1845205;77;26773;-74
2022/07/25 05:46:24;;;;;;;6.05;4.67;;;;;;;14.28;69.79;97375.66;1845290;77;25686;-75
2022/07/25 05:48:50;;;;;;;4.90;4.50;;;;;;;14.38;69.87;97380.48;1845199;77;27506;-75
2022/07/25 05:51:17;;;;;;;6.53;4.40;;;;;;;14.48;69.93;97371.80;1845000;77;25676;-75
2022/07/25 05:53:43;;;;;;;5.12;4.62;;;;;;;14.56;69.96;97372.27;1845230;77;25658;-75
2022/07/25 05:56:10;;;;;;;7.53;4.20;;;;;;;14.67;70.05;97376.86;1845094;77;25677;-74
2022/07/25 05:58:39;;;;;;;7.15;4.70;;;;;;;14.76;70.31;97372.70;1844814;77;25609;-74
2022/07/25 06:01:12;;;;;;;6.15;4.28;;;;;;;14.87;70.15;97372.92;1844917;77;28161;-75
2022/07/25 06:03:38;;;;;;;6.30;4.58;;;;;;;14.97;69.99;97375.88;1841739;77;25980;-75
2022/07/25 06:06:07;;;;;;;5.67;4.20;;;;;;;15.08;69.86;97380.45;1845311;77;25665;-74
2022/07/25 06:08:36;;;;;;;7.55;4.15;;;;;;;15.20;69.74;97386.69;1844801;77;26040;-75
2022/07/25 06:11:04;;;;;;;6.05;4.40;;;;;;;15.31;69.51;97380.39;1730655;81;26830;-75
2022/07/25 06:13:31;;;;;;;5.05;4.55;;;;;;;15.42;69.17;97378.16;1730407;82;27469;-76
2022/07/25 06:15:58;;;;;;;6.37;4.37;;;;;;;15.53;68.82;97375.09;1730687;82;25803;-76
2022/07/25 06:18:26;;;;;;;5.28;4.62;;;;;;;15.64;68.56;97374.23;1730693;82;25755;-75
2022/07/25 06:20:52;;;;;;;5.17;4.62;;;;;;;15.76;68.28;97368.73;1730879;82;26784;-76
2022/07/25 06:23:19;;;;;;;5.08;4.58;;;;;;;15.87;68.06;97369.20;1730749;82;25902;-75
2022/07/25 06:25:46;;;;;;;4.92;4.50;;;;;;;15.98;67.90;97369.66;1730770;82;27532;-75
2022/07/25 06:28:13;;;;;;;7.67;4.97;;;;;;;16.09;67.85;97355.14;1730645;82;25791;-75
2022/07/25 06:30:44;;;;;;;4.90;4.35;;;;;;;16.20;67.83;97358.31;1730665;82;25778;-75
2022/07/25 06:33:11;;;;;;;6.17;4.37;;;;;;;16.35;67.90;97355.55;1730752;82;26161;-75
2022/07/25 06:35:38;;;;;;;5.17;4.60;;;;;;;16.47;68.03;97348.92;1727368;82;25814;-76
2022/07/25 06:38:04;;;;;;;6.05;4.40;;;;;;;16.61;67.97;97348.04;1725182;83;28423;-76
2022/07/25 06:40:31;;;;;;;7.22;4.12;;;;;;;16.71;67.45;97345.48;1725486;82;25405;-76
2022/07/25 06:42:58;;;;;;;6.87;4.45;;;;;;;16.82;67.01;97348.63;1725691;83;25795;-76
2022/07/25 06:45:24;;;;;;;6.33;4.75;;;;;;;16.93;67.00;97342.77;1725566;82;26526;-76
2022/07/25 06:47:51;;;;;;;5.67;3.85;;;;;;;17.05;66.89;97342.64;1725565;83;25795;-76
2022/07/25 06:50:18;;;;;;;6.92;4.33;;;;;;;17.16;66.59;97341.14;1725547;83;28219;-76
2022/07/25 06:52:46;;;;;;;4.87;4.20;;;;;;;17.26;66.30;97337.20;1725678;81;25812;-76
2022/07/25 06:55:14;;;;;;;6.22;4.37;;;;;;;17.37;66.09;97325.86;1725696;83;25831;-75
2022/07/25 06:57:42;;;;;;;6.05;4.17;;;;;;;17.49;65.93;97325.70;1725630;82;25970;-76
2022/07/25 07:00:12;;;;;;;5.80;4.67;;;;;;;17.62;65.70;97330.75;1725667;82;25691;-76
2022/07/25 07:02:57;;;;;;;5.30;4.33;;;;;;;17.74;65.11;97327.35;1725656;82;27607;-76
2022/07/25 07:05:26;;;;;;;6.42;4.72;;;;;;;17.87;65.02;97320.64;1725464;83;25519;-76
2022/07/25 07:07:53;;;;;;;6.20;4.50;;;;;;;17.98;65.01;97320.47;1784275;76;26359;-75
2022/07/25 07:10:20;;;;;;;5.30;4.20;;;;;;;18.08;65.04;97314.26;1844955;77;26689;-76
2022/07/25 07:12:48;;;;;;;5.17;4.10;;;;;;;18.19;64.97;97309.15;1845132;77;25645;-76
2022/07/25 07:15:15;;;;;;;5.62;4.40;;;;;;;18.32;65.00;97310.61;1845016;77;27344;-76
2022/07/25 07:17:42;;;;;;;7.22;4.42;;;;;;;18.45;65.03;97312.06;1844886;77;25736;-76
2022/07/25 07:20:09;;;;;;;6.87;4.22;;;;;;;18.59;65.02;97310.55;1845187;77;25820;-76
2022/07/25 07:22:47;;;;;;;4.12;3.72;;;;;;;18.72;64.67;97308.67;1845005;77;26031;-76
2022/07/25 07:25:15;;;;;;;6.80;3.87;;;;;;;18.86;63.80;97307.65;1844957;77;26319;-76
2022/07/25 07:27:43;;;;;;;4.87;3.77;;;;;;;18.97;63.34;97309.34;1844899;77;27325;-76
2022/07/25 07:30:13;;;;;;;6.17;3.95;;;;;;;19.06;62.86;97303.11;1844570;77;25719;-76
2022/07/25 07:32:41;;;;;;;5.30;3.77;;;;;;;19.17;62.60;97300.41;1844866;77;25682;-76
2022/07/25 07:35:10;;;;;;;4.80;3.87;;;;;;;19.28;62.71;97291.12;1844911;77;26045;-76
2022/07/25 07:37:36;;;;;;;4.45;4.05;;;;;;;19.42;62.42;97292.27;1844995;77;25736;-76
2022/07/25 07:40:04;;;;;;;6.10;3.60;;;;;;;19.57;61.96;97296.95;1844941;77;28424;-76
2022/07/25 07:42:39;;;;;;;6.62;4.53;;;;;;;19.71;61.39;97293.42;1844769;77;25959;-76
2022/07/25 07:45:19;;;;;;;5.83;3.42;;;;;;;19.88;61.17;97281.39;1845038;77;25665;-76
2022/07/25 07:47:47;;;;;;;5.55;3.62;;;;;;;20.08;60.75;97282.75;1725529;81;25989;-75
2022/07/25 07:50:21;;;;;;;5.05;3.80;;;;;;;20.37;60.05;97281.11;1725841;83;25771;-76
2022/07/25 07:52:49;;;;;;;4.22;3.40;;;;;;;20.76;60.20;97277.73;1724737;81;28019;-75
2022/07/25 07:58:01;;;;;;;5.60;2.90;;;;;;;21.74;58.89;97270.89;1725403;81;25794;-77
2022/07/25 08:00:29;;;;;;;4.05;2.92;;;;;;;22.30;58.15;97263.59;1725632;81;26049;-77
2022/07/25 08:02:58;;;;;;;3.02;2.77;;;;;;;22.86;57.88;97262.45;1725729;81;25773;-77
2022/07/25 08:05:32;;;;;;;3.67;2.75;;;;;;;23.46;57.17;97261.94;1725705;81;27471;-77
2022/07/25 08:07:59;;;;;;;2.58;2.27;;;;;;;23.97;55.54;97262.83;1723003;83;25792;-77
2022/07/25 08:10:30;;;;;;;6.60;2.60;;;;;;;24.46;55.39;97259.25;1725537;81;25774;-77
2022/07/25 08:12:58;;;;;;;4.65;2.58;;;;;;;25.00;54.52;97255.72;1725474;81;26211;-78
2022/07/25 08:15:25;;;;;;;3.12;2.15;;;;;;;25.51;53.23;97256.00;1725729;81;25735;-78
2022/07/25 08:17:53;;;;;;;3.83;2.25;;;;;;;25.93;51.56;97252.02;1725781;81;27457;-77
2022/07/25 08:20:24;;;;;;;3.85;2.00;;;;;;;26.31;50.49;97242.78;1725677;81;25817;-77
2022/07/25 08:22:50;;;;;;;1.77;1.67;;;;;;;26.68;49.11;97239.56;1725686;81;25790;-78
2022/07/25 08:25:19;;;;;;;2.33;1.90;;;;;;;27.04;48.68;97237.19;1725739;81;26247;-77
2022/07/25 08:27:47;;;;;;;2.12;1.92;;;;;;;27.33;47.35;97244.33;1725740;81;25762;-78
2022/07/25 08:30:15;;;;;;;1.90;1.80;;;;;;;27.63;46.31;97244.00;1725701;81;27361;-78
2022/07/25 08:32:53;;;;;;;1.87;1.77;;;;;;;27.94;45.41;97251.58;1725604;81;25535;-78
2022/07/25 08:35:21;;;;;;;1.90;1.67;;;;;;;28.27;44.69;97249.67;1723442;82;25934;-78
2022/07/25 08:37:48;;;;;;;2.05;1.90;;;;;;;28.63;43.70;97243.70;1725698;81;26031;-78
2022/07/25 08:40:18;;;;;;;1.85;1.67;;;;;;;28.99;42.90;97234.92;1725764;82;25792;-78
2022/07/25 08:42:45;;;;;;;3.02;1.72;;;;;;;29.33;41.95;97232.54;1725574;81;27379;-78
2022/07/25 08:45:15;;;;;;;1.65;1.55;;;;;;;29.59;42.41;97231.79;1833775;76;25343;-77
2022/07/25 08:47:42;;;;;;;1.65;1.55;;;;;;;29.99;41.69;97226.58;1864575;76;25726;-76
2022/07/25 08:50:13;;;;;;;1.77;1.47;;;;;;;30.33;40.62;97228.20;1864376;76;26191;-77
2022/07/25 08:52:42;;;;;;;1.90;1.57;;;;;;;30.64;40.56;97221.36;1864763;76;25353;-77
2022/07/25 08:55:14;;;;;;;3.27;1.98;;;;;;;31.01;40.21;97221.62;1864579;76;27365;-77
2022/07/25 08:57:44;;;;;;;3.85;1.65;;;;;;;31.39;39.77;97221.86;1864243;76;25442;-77
2022/07/25 09:00:15;;;;;;;2.05;1.60;;;;;;;31.70;38.45;97226.80;1864309;76;25624;-77
2022/07/25 09:02:42;;;;;;;3.15;1.90;;;;;;;31.99;38.58;97225.67;1864793;76;26610;-77
2022/07/25 09:05:09;;;;;;;1.85;1.75;;;;;;;32.27;37.27;97222.30;1864462;76;25589;-77
2022/07/25 09:07:39;;;;;;;1.82;1.72;;;;;;;32.32;36.08;97220.66;1864508;76;28109;-77
2022/07/25 09:10:21;;;;;;;2.35;1.67;;;;;;;32.46;36.24;97218.84;1864600;76;25823;-77
2022/07/25 09:13:13;;;;;;;3.08;1.57;;;;;;;32.70;35.36;97208.09;1864166;76;25649;-76
2022/07/25 09:15:49;;;;;;;1.67;1.57;;;;;;;32.71;34.69;97210.56;1864669;76;25999;-77
2022/07/25 09:18:23;;;;;;;2.00;1.40;;;;;;;32.98;34.54;97210.22;1864487;76;25695;-77
2022/07/25 09:21:00;;;;;;;1.62;1.50;;;;;;;33.20;33.55;97212.97;1860321;76;27526;-77
2022/07/25 09:23:34;;;;;;;1.50;1.40;;;;;;;33.34;32.87;97215.29;1864184;76;25656;-77
2022/07/25 09:26:08;;;;;;;1.50;1.40;;;;;;;33.38;32.31;97207.80;1864579;76;25758;-77
2022/07/25 09:28:50;;;;;;;1.35;1.22;;;;;;;33.56;32.24;97205.64;1819341;78;26824;-77
2022/07/25 09:31:20;;;;;;;1.45;1.35;;;;;;;33.70;31.61;97204.30;1819414;78;25808;-76
2022/07/25 09:33:55;;;;;;;1.80;1.70;;;;;;;33.70;30.77;97198.13;1819319;78;26739;-77
2022/07/25 09:36:21;;;;;;;1.87;1.45;;;;;;;33.79;30.64;97197.95;1825229;78;25737;-76
2022/07/25 09:38:55;;;;;;;2.98;1.70;;;;;;;33.91;30.86;97200.61;1831565;77;25740;-76
2022/07/25 09:41:21;;;;;;;4.72;1.80;;;;;;;33.98;30.43;97193.75;1798765;78;25995;-76
2022/07/25 09:43:48;;;;;;;4.87;1.50;;;;;;;33.96;30.70;97189.10;1763581;80;25455;-76
2022/07/25 09:46:15;;;;;;;1.72;1.57;;;;;;;33.83;29.37;97182.84;1787674;79;28030;-76
2022/07/25 09:48:44;;;;;;;4.05;1.60;;;;;;;33.62;29.68;97186.56;1763397;81;25801;-76
2022/07/25 09:51:12;;;;;;;1.75;1.60;;;;;;;33.59;30.38;97181.69;1787534;79;25902;-77
2022/07/25 09:53:40;;;;;;;2.22;1.37;;;;;;;33.71;30.19;97180.15;1763532;81;26157;-76
2022/07/25 09:56:07;;;;;;;1.82;1.70;;;;;;;33.71;30.31;97181.55;1787600;80;25815;-76
2022/07/25 09:58:34;;;;;;;2.15;1.80;;;;;;;33.60;30.59;97183.31;1763526;81;27623;-76
2022/07/25 10:01:05;;;;;;;2.95;1.98;;;;;;;33.47;30.56;97176.22;1787461;80;25836;-77
2022/07/25 10:04:10;;;;;;;1.97;1.60;;;;;;;33.47;30.71;97177.62;1787609;79;25848;-76
2022/07/25 10:06:48;;;;;;;2.55;1.87;;;;;;;33.53;29.69;97176.17;1763503;80;26811;-76
2022/07/25 10:09:14;;;;;;;1.98;1.60;;;;;;;33.30;30.23;97165.47;1756162;81;25531;-77
2022/07/25 10:12:01;;;;;;;2.98;1.60;;;;;;;33.19;30.24;97167.41;1750649;81;27561;-76
2022/07/25 10:14:27;;;;;;;1.85;1.60;;;;;;;33.29;29.37;97165.24;1703723;83;25824;-76
2022/07/25 10:16:54;;;;;;;2.55;1.75;;;;;;;33.15;30.06;97165.10;1726195;83;25770;-76
2022/07/25 10:19:46;;;;;;;3.12;1.95;;;;;;;33.16;30.47;97159.73;1726324;83;26744;-76
2022/07/25 10:22:14;;;;;;;1.90;1.67;;;;;;;33.16;30.01;97154.14;1726003;83;25782;-76
2022/07/25 10:24:44;;;;;;;2.00;1.90;;;;;;;32.86;29.43;97148.81;1734088;81;27539;-76
2022/07/25 10:27:15;;;;;;;1.60;1.30;;;;;;;32.84;29.41;97140.01;1757940;81;25744;-77
2022/07/25 10:29:42;;;;;;;3.08;1.50;;;;;;;32.98;28.95;97142.30;1724209;82;33270;-76
2022/07/25 10:32:12;;;;;;;2.83;1.42;;;;;;;33.11;28.81;97143.22;1705343;82;26046;-76
2022/07/25 10:34:39;;;;;;;1.55;1.45;;;;;;;33.11;28.71;97132.04;1728006;82;25768;-77
2022/07/25 10:37:16;;;;;;;1.75;1.65;;;;;;;33.06;28.95;97129.55;1699422;84;27386;-76
2022/07/25 10:39:45;;;;;;;1.72;1.60;;;;;;;33.11;28.91;97130.64;1695502;83;26170;-76
2022/07/25 10:42:15;;;;;;;2.00;1.82;;;;;;;33.26;29.10;97129.83;1695730;84;25739;-76
2022/07/25 10:44:48;;;;;;;1.85;1.70;;;;;;;33.48;28.64;97127.48;1695707;84;26623;-76
2022/07/25 10:47:16;;;;;;;3.00;1.65;;;;;;;33.64;28.29;97119.84;1695693;84;25357;-76
2022/07/25 10:49:46;;;;;;;1.57;1.47;;;;;;;33.54;28.25;97124.63;1695608;84;26877;-76
2022/07/25 10:52:18;;;;;;;1.85;1.60;;;;;;;33.40;28.87;97118.73;1695538;84;25706;-76
2022/07/25 10:55:00;;;;;;;1.90;1.60;;;;;;;33.47;28.20;97116.88;1695679;84;25669;-76
2022/07/25 10:57:28;;;;;;;3.15;1.90;;;;;;;33.58;27.40;97113.72;1695840;84;26965;-76
2022/07/25 11:00:05;;;;;;;3.15;2.02;;;;;;;33.58;27.44;97103.11;1695891;84;25809;-76
2022/07/25 11:02:32;;;;;;;1.57;1.47;;;;;;;33.68;27.21;97110.94;1693488;84;27684;-75
2022/07/25 11:05:01;;;;;;;3.15;2.20;;;;;;;33.78;27.48;97108.97;1698461;83;25532;-75
2022/07/25 11:07:34;;;;;;;1.37;1.27;;;;;;;33.89;28.23;97109.98;1724782;82;25797;-76
2022/07/25 11:10:00;;;;;;;1.55;1.45;;;;;;;33.92;27.70;97107.86;1721024;82;26792;-78
2022/07/25 11:12:30;;;;;;;3.05;1.57;;;;;;;34.01;27.28;97104.00;1724843;82;25786;-77
2022/07/25 11:15:02;;;;;;;1.50;1.40;;;;;;;34.06;27.79;97103.67;1724457;82;27450;-77
2022/07/25 11:17:29;;;;;;;1.60;1.25;;;;;;;34.15;27.14;97093.88;1763403;79;25839;-76
2022/07/25 11:20:04;;;;;;;1.60;1.50;;;;;;;34.18;26.34;97089.50;1781008;79;25282;-76
2022/07/25 11:22:33;;;;;;;1.37;1.27;;;;;;;34.14;25.73;97084.44;1781082;80;26893;-77
2022/07/25 11:25:01;;;;;;;1.57;1.47;;;;;;;34.01;26.37;97090.81;1780904;79;25852;-76
2022/07/25 11:27:31;;;;;;;1.60;1.50;;;;;;;33.96;26.30;97084.91;1852244;76;28180;-76
2022/07/25 11:30:13;;;;;;;2.08;1.60;;;;;;;33.79;26.20;97081.20;1861131;77;26326;-78
2022/07/25 11:32:52;;;;;;;2.33;1.50;;;;;;;33.79;26.08;97084.00;1861307;76;25735;-77
2022/07/25 11:35:29;;;;;;;1.45;1.35;;;;;;;33.89;25.47;97084.79;1857569;77;26252;-77
2022/07/25 11:38:01;;;;;;;3.17;1.72;;;;;;;33.81;25.43;97077.41;1818860;78;25836;-76
2022/07/25 11:40:29;;;;;;;1.37;1.27;;;;;;;33.70;25.66;97074.97;1819102;78;28214;-78
2022/07/25 11:42:58;;;;;;;1.70;1.42;;;;;;;33.71;26.17;97075.19;1819348;78;25194;-77
2022/07/25 11:45:28;;;;;;;3.40;1.40;;;;;;;33.63;25.80;97067.26;1819767;78;25293;-79